createdAt,value
2023-03-18T00:04:10.177Z,9.80
2023-03-18T00:09:13.670Z,9.80
2023-03-18T00:14:16.201Z,9.60
2023-03-18T00:19:18.657Z,9.60
2023-03-18T00:24:20.801Z,9.60
2023-03-18T00:29:24.904Z,9.50
2023-03-18T00:34:27.941Z,9.50
2023-03-18T00:39:32.932Z,9.40
2023-03-18T00:44:35.042Z,9.20
2023-03-18T00:49:37.699Z,9.20
2023-03-18T00:54:40.168Z,9.10
2023-03-18T00:59:42.793Z,9.10
2023-03-18T01:04:45.509Z,9.10
2023-03-18T01:09:48.184Z,9.20
2023-03-18T01:14:50.199Z,9.00
2023-03-18T01:19:52.407Z,8.90
2023-03-18T01:24:54.445Z,8.80
2023-03-18T01:30:06.960Z,8.70
2023-03-18T01:35:09.666Z,8.50
2023-03-18T01:40:13.480Z,8.40
2023-03-18T01:45:19.465Z,8.30
2023-03-18T01:50:28.560Z,8.30
2023-03-18T01:55:33.360Z,8.30
2023-03-18T02:00:39.924Z,8.30
2023-03-18T02:05:43.374Z,8.30
2023-03-18T02:10:46.030Z,8.30
2023-03-18T02:16:05.344Z,8.30
2023-03-18T02:21:33.212Z,8.30
2023-03-18T02:27:05.086Z,8.20
2023-03-18T02:32:15.364Z,8.20
2023-03-18T02:37:17.413Z,8.00
2023-03-18T02:42:32.206Z,7.90
2023-03-18T02:47:36.782Z,7.80
2023-03-18T02:52:39.997Z,7.70
2023-03-18T02:57:43.205Z,7.60
2023-03-18T03:02:45.657Z,7.60
2023-03-18T03:07:48.232Z,7.60
2023-03-18T03:12:50.444Z,7.60
2023-03-18T03:17:53.722Z,7.50
2023-03-18T03:22:55.810Z,7.60
2023-03-18T03:27:58.470Z,7.50
2023-03-18T03:33:01.550Z,7.50
2023-03-18T03:38:03.814Z,7.50
2023-03-18T03:43:06.687Z,7.50
2023-03-18T03:48:09.528Z,7.40
2023-03-18T03:53:12.535Z,7.30
2023-03-18T03:58:14.923Z,7.20
2023-03-18T04:03:18.794Z,7.20
2023-03-18T04:08:21.762Z,7.10
2023-03-18T04:13:24.815Z,7.10
2023-03-18T04:18:29.150Z,6.90
2023-03-18T04:23:33.173Z,6.90
2023-03-18T04:28:35.432Z,6.90
2023-03-18T04:33:39.911Z,6.90
2023-03-18T04:38:42.526Z,6.80
2023-03-18T04:43:44.770Z,6.80
2023-03-18T04:48:47.461Z,6.80
2023-03-18T04:53:49.721Z,6.70
2023-03-18T04:58:51.961Z,6.70
2023-03-18T05:03:59.623Z,6.70
2023-03-18T05:09:10.300Z,6.90
2023-03-18T05:14:12.379Z,6.90
2023-03-18T05:19:19.761Z,6.80
2023-03-18T05:24:38.948Z,6.90
2023-03-18T05:29:41.860Z,6.90
2023-03-18T05:34:54.625Z,7.10
2023-03-18T05:39:57.392Z,7.30
2023-03-18T05:45:00.113Z,7.40
2023-03-18T05:50:03.798Z,7.30
2023-03-18T05:55:08.154Z,7.30
2023-03-18T06:00:15.526Z,7.20
2023-03-18T06:05:18.231Z,7.30
2023-03-18T06:10:23.383Z,7.40
2023-03-18T06:15:26.559Z,7.40
2023-03-18T06:20:28.892Z,7.50
2023-03-18T06:25:32.258Z,7.50
2023-03-18T06:30:34.482Z,7.60
2023-03-18T06:35:36.793Z,7.70
2023-03-18T06:40:39.121Z,7.80
2023-03-18T06:45:42.776Z,7.90
2023-03-18T06:50:45.723Z,8.00
2023-03-18T06:55:57.398Z,8.00
2023-03-18T07:01:04.107Z,8.10
2023-03-18T07:06:14.079Z,8.30
2023-03-18T07:11:17.591Z,8.40
2023-03-18T07:16:21.173Z,8.50
2023-03-18T07:21:23.618Z,8.60
2023-03-18T07:26:26.402Z,8.60
2023-03-18T07:31:28.530Z,8.70
2023-03-18T07:36:30.810Z,8.90
2023-03-18T07:41:33.101Z,9.00
2023-03-18T07:46:35.182Z,9.20
2023-03-18T07:51:37.463Z,9.30
2023-03-18T07:56:39.743Z,9.40
2023-03-18T08:01:42.029Z,9.50
2023-03-18T08:06:44.145Z,9.70
2023-03-18T08:11:47.013Z,9.80
2023-03-18T08:16:49.698Z,9.90
2023-03-18T08:21:51.710Z,10.10
2023-03-18T08:26:54.026Z,10.30
2023-03-18T08:31:57.157Z,10.60
2023-03-18T08:36:59.605Z,10.80
2023-03-18T08:42:05.663Z,11.10
2023-03-18T08:47:08.319Z,11.10
2023-03-18T08:52:10.605Z,11.10
2023-03-18T08:57:12.725Z,11.20
2023-03-18T09:02:18.601Z,11.20
2023-03-18T09:07:20.561Z,11.30
2023-03-18T09:12:22.688Z,11.40
2023-03-18T09:17:35.887Z,11.50
2023-03-18T09:22:47.368Z,11.60
2023-03-18T09:27:49.395Z,11.80
2023-03-18T09:32:51.420Z,11.80
2023-03-18T09:37:54.031Z,12.00
2023-03-18T09:43:09.929Z,12.30
2023-03-18T09:48:45.326Z,12.30
2023-03-18T09:53:58.599Z,12.20
2023-03-18T09:59:18.417Z,12.10
2023-03-18T10:04:48.370Z,12.20
2023-03-18T10:09:59.457Z,12.30
2023-03-18T10:15:26.797Z,12.40
2023-03-18T10:21:07.098Z,12.50
2023-03-18T10:26:33.303Z,12.30
2023-03-18T10:31:58.946Z,11.80
2023-03-18T10:37:11.004Z,11.60
2023-03-18T10:42:24.554Z,11.70
2023-03-18T10:47:34.089Z,11.80
2023-03-18T10:52:45.479Z,11.90
2023-03-18T10:57:47.765Z,12.30
2023-03-18T11:02:50.219Z,12.80
2023-03-18T11:08:05.312Z,12.70
2023-03-18T11:13:07.396Z,12.70
2023-03-18T11:18:19.142Z,13.40
2023-03-18T11:23:48.541Z,13.50
2023-03-18T11:28:56.748Z,13.50
2023-03-18T11:33:59.316Z,13.90
2023-03-18T11:39:06.887Z,13.60
2023-03-18T11:44:18.713Z,13.30
2023-03-18T11:49:24.320Z,13.10
2023-03-18T11:54:42.625Z,13.00
2023-03-18T11:59:54.691Z,12.90
2023-03-18T12:05:02.941Z,12.60
2023-03-18T12:10:19.738Z,12.40
2023-03-18T12:15:36.424Z,12.30
2023-03-18T12:20:47.086Z,12.20
2023-03-18T12:26:34.697Z,12.30
2023-03-18T12:32:11.734Z,12.30
2023-03-18T12:37:32.134Z,12.40
2023-03-18T12:42:57.546Z,12.60
2023-03-18T12:48:04.565Z,12.60
2023-03-18T12:53:17.241Z,12.80
2023-03-18T12:58:24.343Z,12.90
2023-03-18T13:03:51.188Z,12.60
2023-03-18T13:09:26.944Z,12.50
2023-03-18T13:14:58.573Z,12.50
2023-03-18T13:20:03.533Z,12.50
2023-03-18T13:25:23.759Z,12.50
2023-03-18T13:30:41.564Z,12.40
2023-03-18T13:36:04.223Z,12.30
2023-03-18T13:41:14.114Z,12.30
2023-03-18T13:46:27.579Z,12.50
2023-03-18T13:51:29.760Z,12.50
2023-03-18T13:56:40.484Z,12.70
2023-03-18T14:01:49.691Z,13.10
2023-03-18T14:07:11.635Z,13.00
2023-03-18T14:12:19.062Z,12.80
2023-03-18T14:17:46.643Z,12.90
2023-03-18T14:23:14.778Z,12.60
2023-03-18T14:28:20.696Z,12.30
2023-03-18T14:33:22.770Z,12.00
2023-03-18T14:38:47.238Z,12.10
2023-03-18T14:44:24.237Z,12.20
2023-03-18T14:49:46.004Z,12.00
2023-03-18T14:54:50.569Z,12.10
2023-03-18T14:59:52.757Z,12.20
2023-03-18T15:04:58.076Z,12.00
2023-03-18T15:10:08.691Z,11.90
2023-03-18T15:15:15.420Z,11.80
2023-03-18T15:20:17.589Z,11.70
2023-03-18T15:25:21.027Z,11.80
2023-03-18T15:30:26.932Z,11.90
2023-03-18T15:35:31.683Z,11.80
2023-03-18T15:40:52.577Z,11.90
2023-03-18T15:46:00.659Z,11.90
2023-03-18T15:51:05.582Z,11.90
2023-03-18T15:56:16.430Z,12.00
2023-03-18T16:01:19.699Z,11.80
2023-03-18T16:06:22.853Z,11.90
2023-03-18T16:11:26.182Z,11.80
2023-03-18T16:16:30.064Z,11.60
2023-03-18T16:21:32.124Z,11.70
2023-03-18T16:26:34.390Z,11.70
2023-03-18T16:31:36.726Z,11.90
2023-03-18T16:36:39.807Z,11.70
2023-03-18T16:41:42.411Z,11.70
2023-03-18T16:46:51.700Z,11.70
2023-03-18T16:51:54.647Z,11.70
2023-03-18T16:56:58.914Z,11.80
2023-03-18T17:02:03.994Z,11.80
2023-03-18T17:07:06.190Z,11.60
2023-03-18T17:12:08.768Z,11.50
2023-03-18T17:17:33.096Z,11.40
2023-03-18T17:22:35.272Z,11.50
2023-03-18T17:27:46.037Z,11.40
2023-03-18T17:32:49.470Z,11.30
2023-03-18T17:37:53.653Z,11.20
2023-03-18T17:42:56.435Z,11.30
2023-03-18T17:48:14.146Z,11.20
2023-03-18T17:53:37.828Z,11.20
2023-03-18T17:58:46.043Z,11.10
2023-03-18T18:03:51.216Z,11.20
2023-03-18T18:08:59.614Z,11.10
2023-03-18T18:14:25.571Z,11.10
2023-03-18T18:19:31.084Z,11.20
2023-03-18T18:24:34.269Z,11.00
2023-03-18T18:29:41.839Z,10.90
2023-03-18T18:34:45.981Z,10.80
2023-03-18T18:39:49.684Z,10.70
2023-03-18T18:44:53.216Z,10.70
2023-03-18T18:49:56.910Z,10.60
2023-03-18T18:55:00.922Z,10.70
2023-03-18T19:00:11.550Z,10.60
2023-03-18T19:05:14.989Z,10.60
2023-03-18T19:10:20.144Z,10.70
2023-03-18T19:15:24.609Z,10.70
2023-03-18T19:20:31.227Z,10.70
2023-03-18T19:25:36.254Z,10.70
2023-03-18T19:30:39.808Z,10.70
2023-03-18T19:35:44.696Z,10.70
2023-03-18T19:40:50.438Z,10.80
2023-03-18T19:45:53.475Z,10.80
2023-03-18T19:50:57.888Z,10.80
2023-03-18T19:56:00.487Z,10.80
2023-03-18T20:01:04.186Z,10.80
2023-03-18T20:06:06.543Z,10.80
2023-03-18T20:11:16.022Z,10.80
2023-03-18T20:16:19.432Z,10.70
2023-03-18T20:21:30.954Z,10.70
2023-03-18T20:26:33.062Z,10.70
2023-03-18T20:31:35.250Z,10.70
2023-03-18T20:36:38.531Z,10.60
2023-03-18T20:41:40.846Z,10.60
2023-03-18T20:46:43.038Z,10.70
2023-03-18T20:51:45.811Z,10.60
2023-03-18T20:56:47.905Z,10.70
2023-03-18T21:01:51.152Z,10.70
2023-03-18T21:06:53.277Z,10.70
2023-03-18T21:11:55.705Z,10.70
2023-03-18T21:16:58.020Z,10.70
2023-03-18T21:22:00.413Z,10.70
2023-03-18T21:27:05.222Z,10.60
2023-03-18T21:32:19.462Z,10.60
2023-03-18T21:37:24.364Z,10.50
2023-03-18T21:42:28.654Z,10.50
2023-03-18T21:47:30.929Z,10.40
2023-03-18T21:52:36.224Z,10.30
2023-03-18T21:57:38.522Z,10.30
2023-03-18T22:02:40.612Z,10.20
2023-03-18T22:07:42.761Z,10.20
2023-03-18T22:12:45.264Z,10.20
2023-03-18T22:17:47.406Z,10.20
2023-03-18T22:22:49.497Z,10.30
2023-03-18T22:27:51.585Z,10.30
2023-03-18T22:32:54.129Z,10.30
2023-03-18T22:37:56.692Z,10.30
2023-03-18T22:43:00.941Z,10.20
2023-03-18T22:48:04.661Z,10.20
2023-03-18T22:53:09.063Z,10.20
2023-03-18T22:58:22.577Z,10.20
2023-03-18T23:03:31.327Z,10.20
2023-03-18T23:08:33.838Z,10.20
2023-03-18T23:13:39.039Z,10.20
2023-03-18T23:18:41.298Z,10.20
2023-03-18T23:23:43.552Z,10.10
2023-03-18T23:28:46.059Z,10.20
2023-03-18T23:33:48.289Z,10.20
2023-03-18T23:38:50.717Z,10.10
2023-03-18T23:43:52.856Z,10.00
2023-03-18T23:48:54.928Z,10.00
2023-03-18T23:53:57.089Z,10.00
2023-03-18T23:58:59.334Z,9.90
